createdAt,value
2022-10-19T00:02:25.549Z,16.00
2022-10-19T00:04:53.260Z,16.10
2022-10-19T00:07:22.301Z,15.90
2022-10-19T00:09:50.216Z,15.90
2022-10-19T00:12:17.919Z,15.80
2022-10-19T00:14:45.598Z,16.10
2022-10-19T00:17:13.308Z,15.80
2022-10-19T00:19:41.156Z,16.10
2022-10-19T00:22:11.627Z,15.90
2022-10-19T00:24:42.971Z,15.70
2022-10-19T00:27:10.771Z,16.00
2022-10-19T00:29:38.980Z,16.00
2022-10-19T00:32:06.730Z,16.00
2022-10-19T00:34:34.417Z,16.00
2022-10-19T00:37:02.087Z,15.80
2022-10-19T00:39:29.803Z,16.00
2022-10-19T00:41:58.843Z,15.90
2022-10-19T00:45:06.637Z,15.90
2022-10-19T00:47:35.217Z,16.30
2022-10-19T00:50:03.392Z,15.80
2022-10-19T00:52:31.794Z,16.20
2022-10-19T00:55:00.684Z,16.20
2022-10-19T00:57:32.377Z,16.00
2022-10-19T01:00:01.779Z,16.20
2022-10-19T01:02:29.541Z,16.10
2022-10-19T01:04:57.604Z,15.80
2022-10-19T01:07:26.476Z,16.10
2022-10-19T01:09:54.956Z,16.20
2022-10-19T01:12:49.072Z,16.00
2022-10-19T01:15:28.056Z,16.00
2022-10-19T01:18:03.128Z,16.10
2022-10-19T01:21:11.767Z,16.20
2022-10-19T01:24:13.509Z,15.90
2022-10-19T01:27:26.149Z,15.80
2022-10-19T01:30:09.431Z,15.80
2022-10-19T01:32:47.688Z,15.60
2022-10-19T01:35:24.568Z,15.80
2022-10-19T01:38:01.784Z,15.60
2022-10-19T01:40:32.671Z,15.50
2022-10-19T01:43:03.680Z,15.50
2022-10-19T01:45:39.562Z,15.80
2022-10-19T01:48:09.743Z,15.40
2022-10-19T01:50:41.856Z,15.40
2022-10-19T01:53:12.336Z,15.50
2022-10-19T01:55:43.768Z,15.40
2022-10-19T01:58:15.251Z,15.40
2022-10-19T02:00:47.262Z,15.30
2022-10-19T02:03:16.522Z,15.10
2022-10-19T02:05:46.071Z,15.10
2022-10-19T02:08:18.248Z,15.20
2022-10-19T02:10:47.314Z,15.30
2022-10-19T02:13:17.225Z,15.10
2022-10-19T02:15:51.192Z,15.40
2022-10-19T02:18:23.471Z,15.20
2022-10-19T02:20:51.329Z,15.00
2022-10-19T02:23:23.037Z,15.00
2022-10-19T02:25:50.853Z,15.00
2022-10-19T02:28:19.137Z,15.30
2022-10-19T02:30:48.700Z,15.20
2022-10-19T02:33:16.988Z,14.90
2022-10-19T02:35:44.944Z,15.10
2022-10-19T02:38:16.874Z,15.10
2022-10-19T02:40:51.332Z,15.20
2022-10-19T02:43:22.977Z,14.90
2022-10-19T02:45:57.924Z,15.20
2022-10-19T02:48:28.572Z,14.90
2022-10-19T02:50:56.257Z,15.00
2022-10-19T02:53:24.028Z,15.30
2022-10-19T02:55:52.806Z,14.90
2022-10-19T02:58:20.583Z,14.80
2022-10-19T03:00:48.316Z,14.80
2022-10-19T03:03:17.390Z,14.80
2022-10-19T03:05:45.094Z,15.00
2022-10-19T03:08:12.796Z,15.00
2022-10-19T03:10:40.467Z,15.10
2022-10-19T03:13:08.180Z,15.20
2022-10-19T03:15:35.864Z,14.60
2022-10-19T03:18:03.590Z,14.90
2022-10-19T03:20:32.624Z,15.30
2022-10-19T03:23:00.356Z,14.40
2022-10-19T03:25:28.039Z,14.80
2022-10-19T03:27:55.723Z,14.90
2022-10-19T03:30:23.523Z,14.80
2022-10-19T03:32:51.554Z,14.90
2022-10-19T03:35:19.323Z,15.00
2022-10-19T03:37:48.360Z,14.70
2022-10-19T03:40:16.231Z,14.30
2022-10-19T03:42:44.020Z,14.90
2022-10-19T03:45:12.099Z,14.70
2022-10-19T03:47:39.767Z,15.10
2022-10-19T03:50:11.110Z,14.80
2022-10-19T03:52:38.786Z,15.30
2022-10-19T03:55:09.171Z,15.00
2022-10-19T03:57:37.066Z,15.00
2022-10-19T04:00:05.831Z,14.90
2022-10-19T04:02:33.553Z,14.70
2022-10-19T04:05:01.273Z,14.90
2022-10-19T04:07:29.009Z,14.90
2022-10-19T04:09:56.700Z,14.90
2022-10-19T04:12:25.763Z,14.80
2022-10-19T04:14:57.444Z,14.90
2022-10-19T04:17:26.179Z,14.70
2022-10-19T04:19:53.863Z,15.00
2022-10-19T04:22:21.620Z,14.70
2022-10-19T04:24:49.335Z,15.00
2022-10-19T04:27:17.088Z,15.10
2022-10-19T04:29:46.151Z,15.00
2022-10-19T04:32:13.831Z,15.00
2022-10-19T04:34:41.513Z,15.00
2022-10-19T04:37:09.200Z,15.00
2022-10-19T04:39:39.372Z,14.80
2022-10-19T04:42:07.085Z,14.70
2022-10-19T04:44:34.793Z,14.70
2022-10-19T04:47:03.863Z,14.70
2022-10-19T04:49:31.590Z,14.80
2022-10-19T04:51:59.269Z,14.80
2022-10-19T04:54:27.001Z,14.70
2022-10-19T04:56:54.720Z,14.40
2022-10-19T04:59:22.507Z,14.50
2022-10-19T05:01:50.226Z,14.60
2022-10-19T05:04:19.252Z,14.60
2022-10-19T05:06:46.940Z,14.80
2022-10-19T05:09:14.655Z,14.60
2022-10-19T05:11:42.357Z,14.60
2022-10-19T05:14:10.106Z,14.60
2022-10-19T05:16:37.887Z,14.70
2022-10-19T05:19:05.584Z,14.40
2022-10-19T05:21:34.736Z,14.80
2022-10-19T05:24:02.430Z,14.70
2022-10-19T05:26:30.132Z,14.40
2022-10-19T05:29:01.351Z,14.50
2022-10-19T05:31:30.822Z,14.70
2022-10-19T05:33:58.763Z,14.50
2022-10-19T05:36:28.528Z,14.20
2022-10-19T05:38:58.596Z,14.30
2022-10-19T05:41:27.273Z,14.60
2022-10-19T05:43:56.956Z,14.60
2022-10-19T05:46:25.703Z,14.40
2022-10-19T05:48:53.543Z,14.50
2022-10-19T05:51:23.342Z,14.50
2022-10-19T05:53:51.689Z,14.60
2022-10-19T05:56:22.427Z,14.40
2022-10-19T05:58:50.840Z,14.50
2022-10-19T06:01:19.784Z,14.70
2022-10-19T06:03:47.641Z,14.60
2022-10-19T06:06:15.343Z,14.80
2022-10-19T06:08:43.658Z,14.90
2022-10-19T06:11:15.524Z,14.70
2022-10-19T06:13:45.916Z,14.50
2022-10-19T06:16:15.853Z,14.50
2022-10-19T06:18:43.872Z,14.50
2022-10-19T06:21:13.855Z,14.60
2022-10-19T06:26:15.578Z,14.70
2022-10-19T06:28:45.168Z,14.80
2022-10-19T06:31:14.599Z,14.80
2022-10-19T06:33:44.354Z,14.70
2022-10-19T06:36:15.672Z,14.60
2022-10-19T06:38:43.987Z,14.70
2022-10-19T06:41:12.760Z,14.50
2022-10-19T06:43:42.898Z,15.00
2022-10-19T06:46:14.798Z,14.80
2022-10-19T06:48:42.559Z,14.50
2022-10-19T06:51:10.459Z,14.60
2022-10-19T06:53:38.227Z,15.00
2022-10-19T06:56:07.549Z,14.80
2022-10-19T06:58:36.700Z,14.60
2022-10-19T07:01:05.045Z,14.80
2022-10-19T07:03:34.629Z,14.90
2022-10-19T07:06:04.629Z,14.70
2022-10-19T07:08:33.321Z,14.60
2022-10-19T07:11:03.749Z,14.80
2022-10-19T07:13:31.964Z,14.90
2022-10-19T07:16:01.069Z,14.80
2022-10-19T07:18:29.101Z,14.70
2022-10-19T07:20:59.884Z,14.80
2022-10-19T07:23:29.351Z,14.90
2022-10-19T07:26:01.484Z,15.00
2022-10-19T07:28:30.347Z,14.70
2022-10-19T07:30:58.187Z,14.80
2022-10-19T07:33:26.007Z,14.80
2022-10-19T07:36:01.597Z,14.60
2022-10-19T07:38:31.260Z,14.90
2022-10-19T07:41:04.555Z,14.70
2022-10-19T07:43:32.276Z,15.00
2022-10-19T07:46:01.577Z,15.20
2022-10-19T07:48:29.732Z,14.70
2022-10-19T07:50:57.444Z,15.20
2022-10-19T07:53:26.518Z,15.10
2022-10-19T07:55:54.233Z,15.20
2022-10-19T07:58:22.046Z,15.40
2022-10-19T08:00:49.832Z,15.20
2022-10-19T08:06:07.648Z,15.60
2022-10-19T08:08:37.720Z,15.70
2022-10-19T08:11:09.474Z,15.80
2022-10-19T08:13:37.897Z,15.80
2022-10-19T08:16:06.585Z,16.10
2022-10-19T08:18:34.305Z,16.00
2022-10-19T08:21:03.883Z,16.10
2022-10-19T08:23:31.578Z,16.30
2022-10-19T08:26:00.719Z,16.30
2022-10-19T08:28:28.425Z,16.00
2022-10-19T08:30:58.805Z,16.30
2022-10-19T08:33:27.526Z,16.10
2022-10-19T08:35:55.210Z,16.60
2022-10-19T08:38:22.995Z,16.60
2022-10-19T08:40:50.754Z,16.40
2022-10-19T08:43:25.110Z,16.20
2022-10-19T08:45:59.501Z,16.80
2022-10-19T08:48:29.736Z,17.00
2022-10-19T08:50:58.884Z,16.90
2022-10-19T08:53:36.588Z,16.60
2022-10-19T08:56:45.772Z,17.20
2022-10-19T08:59:22.578Z,17.80
2022-10-19T09:01:55.296Z,17.70
2022-10-19T09:04:26.933Z,17.60
2022-10-19T09:07:16.286Z,17.50
2022-10-19T09:09:49.423Z,18.30
2022-10-19T09:12:20.530Z,18.50
2022-10-19T09:14:57.233Z,18.30
2022-10-19T09:17:25.175Z,18.40
2022-10-19T09:19:52.990Z,18.70
2022-10-19T09:22:25.014Z,18.70
2022-10-19T09:24:55.486Z,18.60
2022-10-19T09:27:25.258Z,18.60
2022-10-19T09:29:56.707Z,18.60
2022-10-19T09:32:28.159Z,18.60
2022-10-19T09:35:01.029Z,18.40
2022-10-19T09:40:02.587Z,18.60
2022-10-19T09:42:33.551Z,18.70
2022-10-19T09:45:14.242Z,18.70
2022-10-19T09:47:46.782Z,18.70
2022-10-19T09:50:20.111Z,18.60
2022-10-19T09:52:48.673Z,18.70
2022-10-19T09:55:38.885Z,19.10
2022-10-19T09:58:17.716Z,19.70
2022-10-19T10:00:50.367Z,21.10
2022-10-19T10:03:27.401Z,22.10
2022-10-19T10:05:57.504Z,22.00
2022-10-19T10:08:27.805Z,22.50
2022-10-19T10:11:04.457Z,23.80
2022-10-19T10:13:35.855Z,24.40
2022-10-19T10:16:08.345Z,25.30
2022-10-19T10:18:39.520Z,26.20
2022-10-19T10:21:15.202Z,27.00
2022-10-19T10:23:42.963Z,28.10
2022-10-19T10:26:20.442Z,29.00
2022-10-19T10:28:49.665Z,29.90
2022-10-19T10:31:23.234Z,30.30
2022-10-19T10:33:56.180Z,30.90
2022-10-19T10:36:25.621Z,31.60
2022-10-19T10:38:58.579Z,31.60
2022-10-19T10:41:28.921Z,32.00
2022-10-19T10:44:00.925Z,32.40
2022-10-19T10:46:37.181Z,32.00
2022-10-19T10:49:08.123Z,32.20
2022-10-19T10:51:40.488Z,31.70
2022-10-19T10:54:17.117Z,31.40
2022-10-19T10:56:55.776Z,31.20
2022-10-19T10:59:27.439Z,30.80
2022-10-19T11:02:03.071Z,29.70
2022-10-19T11:04:36.448Z,28.60
2022-10-19T11:07:16.601Z,27.80
2022-10-19T11:09:49.043Z,27.10
2022-10-19T11:12:21.024Z,26.60
2022-10-19T11:14:52.583Z,26.00
2022-10-19T11:17:24.727Z,25.60
2022-10-19T11:19:53.517Z,25.70
2022-10-19T11:22:28.256Z,26.00
2022-10-19T11:25:09.089Z,26.70
2022-10-19T11:27:48.855Z,26.60
2022-10-19T11:30:19.381Z,25.90
2022-10-19T11:32:56.981Z,25.30
2022-10-19T11:35:41.774Z,25.30
2022-10-19T11:38:32.826Z,25.20
2022-10-19T11:41:17.914Z,25.10
2022-10-19T11:43:59.581Z,25.00
2022-10-19T11:46:35.455Z,24.80
2022-10-19T11:49:16.841Z,24.50
2022-10-19T11:51:51.835Z,24.10
2022-10-19T11:54:33.859Z,24.10
2022-10-19T11:57:11.754Z,23.80
2022-10-19T11:59:50.925Z,23.50
2022-10-19T12:02:47.939Z,23.50
2022-10-19T12:05:22.516Z,23.40
2022-10-19T12:07:57.756Z,23.20
2022-10-19T12:10:31.862Z,22.80
2022-10-19T12:13:03.763Z,23.00
2022-10-19T12:15:36.032Z,23.10
2022-10-19T12:18:11.954Z,23.40
2022-10-19T12:20:45.880Z,23.60
2022-10-19T12:23:23.913Z,23.90
2022-10-19T12:25:52.564Z,24.00
2022-10-19T12:28:25.730Z,24.10
2022-10-19T12:30:54.570Z,24.40
2022-10-19T12:33:28.240Z,24.70
2022-10-19T12:36:16.964Z,25.00
2022-10-19T12:39:00.147Z,25.20
2022-10-19T12:41:34.988Z,24.60
2022-10-19T12:44:33.489Z,23.50
2022-10-19T12:47:09.327Z,22.80
2022-10-19T12:49:49.707Z,22.50
2022-10-19T12:52:37.241Z,22.70
2022-10-19T12:55:26.278Z,23.40
2022-10-19T12:58:06.870Z,23.80
2022-10-19T13:00:36.605Z,24.30
2022-10-19T13:03:08.407Z,24.60
2022-10-19T13:05:36.873Z,25.10
2022-10-19T13:08:10.793Z,25.00
2022-10-19T13:10:41.542Z,25.00
2022-10-19T13:13:55.727Z,24.60
2022-10-19T13:17:00.141Z,24.30
2022-10-19T13:19:28.349Z,24.10
2022-10-19T13:22:28.730Z,24.50
2022-10-19T13:25:32.494Z,25.10
2022-10-19T13:28:37.148Z,25.10
2022-10-19T13:31:23.392Z,25.20
2022-10-19T13:33:55.634Z,25.10
2022-10-19T13:36:25.214Z,25.40
2022-10-19T13:39:08.446Z,25.70
2022-10-19T13:41:54.032Z,25.60
2022-10-19T13:44:29.228Z,25.30
2022-10-19T13:47:18.831Z,25.30
2022-10-19T13:50:23.395Z,25.30
2022-10-19T13:53:21.645Z,24.50
2022-10-19T13:56:25.309Z,23.70
2022-10-19T13:59:44.809Z,23.10
2022-10-19T14:02:46.098Z,22.90
2022-10-19T14:08:23.511Z,23.10
2022-10-19T14:11:01.408Z,23.20
2022-10-19T14:13:30.196Z,23.20
2022-10-19T14:16:01.366Z,23.10
2022-10-19T14:18:32.983Z,22.90
2022-10-19T14:21:02.632Z,22.60
2022-10-19T14:23:32.497Z,22.10
2022-10-19T14:26:02.605Z,22.20
2022-10-19T14:28:31.213Z,22.30
2022-10-19T14:31:01.366Z,22.30
2022-10-19T14:33:33.538Z,22.10
2022-10-19T14:36:01.364Z,22.00
2022-10-19T14:38:36.128Z,21.70
2022-10-19T14:41:04.522Z,21.40
2022-10-19T14:43:35.186Z,21.20
2022-10-19T14:46:13.076Z,21.00
2022-10-19T14:48:45.204Z,20.90
2022-10-19T14:51:27.857Z,20.80
2022-10-19T14:54:00.536Z,20.40
2022-10-19T14:56:34.037Z,20.60
2022-10-19T14:59:04.360Z,20.50
2022-10-19T15:01:32.120Z,20.00
2022-10-19T15:04:01.258Z,20.10
2022-10-19T15:06:32.428Z,19.90
2022-10-19T15:09:02.861Z,19.70
2022-10-19T15:11:33.993Z,19.30
2022-10-19T15:14:07.005Z,19.20
2022-10-19T15:16:43.488Z,19.10
2022-10-19T15:19:24.341Z,19.00
2022-10-19T15:22:07.787Z,19.30
2022-10-19T15:24:35.946Z,19.00
2022-10-19T15:27:11.490Z,19.00
2022-10-19T15:29:40.169Z,18.60
2022-10-19T15:32:15.827Z,19.10
2022-10-19T15:34:46.709Z,18.20
2022-10-19T15:37:20.381Z,18.60
2022-10-19T15:39:48.755Z,18.80
2022-10-19T15:42:34.623Z,18.30
2022-10-19T15:45:03.151Z,18.40
2022-10-19T15:47:31.106Z,18.20
2022-10-19T15:50:02.548Z,18.40
2022-10-19T15:52:32.673Z,18.00
2022-10-19T15:55:01.835Z,18.20
2022-10-19T15:57:32.372Z,18.00
2022-10-19T16:00:01.962Z,18.30
2022-10-19T16:02:29.647Z,17.90
2022-10-19T16:04:57.464Z,17.90
2022-10-19T16:07:29.825Z,17.80
2022-10-19T16:09:58.529Z,17.90
2022-10-19T16:12:27.241Z,17.50
2022-10-19T16:14:55.284Z,17.60
2022-10-19T16:17:23.423Z,17.60
2022-10-19T16:19:51.213Z,17.60
2022-10-19T16:22:18.911Z,17.40
2022-10-19T16:24:47.915Z,17.40
2022-10-19T16:27:16.242Z,17.30
2022-10-19T16:29:44.464Z,16.90
2022-10-19T16:32:12.380Z,17.20
2022-10-19T16:34:41.219Z,17.10
2022-10-19T16:37:08.923Z,17.10
2022-10-19T16:39:36.645Z,17.00
2022-10-19T16:42:05.730Z,16.80
2022-10-19T16:44:33.414Z,16.60
2022-10-19T16:47:01.154Z,16.80
2022-10-19T16:49:28.997Z,16.60
2022-10-19T16:51:57.726Z,16.50
2022-10-19T16:54:27.212Z,16.50
2022-10-19T16:56:56.272Z,16.50
2022-10-19T16:59:25.468Z,16.40
2022-10-19T17:01:53.932Z,16.40
2022-10-19T17:04:21.976Z,16.40
2022-10-19T17:06:49.766Z,16.20
2022-10-19T17:12:06.370Z,16.30
2022-10-19T17:14:35.875Z,16.10
2022-10-19T17:17:03.608Z,16.40
2022-10-19T17:19:31.346Z,16.30
2022-10-19T17:22:01.728Z,16.50
2022-10-19T17:24:30.113Z,16.00
2022-10-19T17:26:57.887Z,16.10
2022-10-19T17:29:25.588Z,16.20
2022-10-19T17:31:54.692Z,15.70
2022-10-19T17:34:22.405Z,15.60
2022-10-19T17:36:50.148Z,15.90
2022-10-19T17:39:21.461Z,16.00
2022-10-19T17:41:52.367Z,15.90
2022-10-19T17:44:22.593Z,15.90
2022-10-19T17:46:50.629Z,16.00
2022-10-19T17:49:19.640Z,16.10
2022-10-19T17:51:47.540Z,16.00
2022-10-19T17:54:15.858Z,15.80
2022-10-19T17:56:45.087Z,15.80
2022-10-19T17:59:13.422Z,15.90
2022-10-19T18:01:41.227Z,15.90
2022-10-19T18:04:08.968Z,15.80
2022-10-19T18:06:38.931Z,15.30
2022-10-19T18:09:09.058Z,15.60
2022-10-19T18:11:40.127Z,15.60
2022-10-19T18:14:09.297Z,15.80
2022-10-19T18:16:39.404Z,15.80
2022-10-19T18:19:08.247Z,15.90
2022-10-19T18:21:40.780Z,15.90
2022-10-19T18:24:14.268Z,16.00
2022-10-19T18:26:43.612Z,15.40
2022-10-19T18:29:13.286Z,15.10
2022-10-19T18:31:41.860Z,15.00
2022-10-19T18:34:14.410Z,15.60
2022-10-19T18:36:44.385Z,15.00
2022-10-19T18:39:13.642Z,15.60
2022-10-19T18:41:41.721Z,15.20
2022-10-19T18:44:13.636Z,15.40
2022-10-19T18:46:41.835Z,15.70
2022-10-19T18:49:11.510Z,15.70
2022-10-19T18:51:39.658Z,15.50
2022-10-19T18:54:09.024Z,15.50
2022-10-19T18:56:37.275Z,15.40
2022-10-19T18:59:05.752Z,15.20
2022-10-19T19:01:33.785Z,15.70
2022-10-19T19:04:07.470Z,15.40
2022-10-19T19:06:36.225Z,15.30
2022-10-19T19:09:06.530Z,15.50
2022-10-19T19:11:38.046Z,15.40
2022-10-19T19:14:08.646Z,14.90
2022-10-19T19:16:38.640Z,15.40
2022-10-19T19:19:07.731Z,15.60
2022-10-19T19:21:36.520Z,15.70
2022-10-19T19:24:07.282Z,15.80
2022-10-19T19:26:39.874Z,15.70
2022-10-19T19:29:08.404Z,15.30
2022-10-19T19:31:36.520Z,16.10
2022-10-19T19:34:06.258Z,15.80
2022-10-19T19:36:34.103Z,15.90
2022-10-19T19:39:02.337Z,16.00
2022-10-19T19:41:31.209Z,15.90
2022-10-19T19:44:00.294Z,15.90
2022-10-19T19:46:28.320Z,16.00
2022-10-19T19:49:00.968Z,16.10
2022-10-19T19:51:30.447Z,16.20
2022-10-19T19:53:58.739Z,16.00
2022-10-19T19:56:29.051Z,15.70
2022-10-19T19:58:58.191Z,16.30
2022-10-19T20:01:28.028Z,15.90
2022-10-19T20:03:58.221Z,16.20
2022-10-19T20:06:26.217Z,16.40
2022-10-19T20:08:54.647Z,16.00
2022-10-19T20:11:23.526Z,15.80
2022-10-19T20:13:51.944Z,16.00
2022-10-19T20:16:25.144Z,15.80
2022-10-19T20:19:01.694Z,15.80
2022-10-19T20:21:31.451Z,15.90
2022-10-19T20:23:59.189Z,16.20
2022-10-19T20:26:27.969Z,16.20
2022-10-19T20:28:56.008Z,16.10
2022-10-19T20:31:24.328Z,16.50
2022-10-19T20:33:52.264Z,15.80
2022-10-19T20:36:24.014Z,16.30
2022-10-19T20:38:53.377Z,16.10
2022-10-19T20:41:23.200Z,16.20
2022-10-19T20:43:51.303Z,16.20
2022-10-19T20:46:20.996Z,16.10
2022-10-19T20:48:50.019Z,16.00
2022-10-19T20:51:19.698Z,16.20
2022-10-19T20:53:50.639Z,16.30
2022-10-19T20:56:21.687Z,16.10
2022-10-19T20:58:54.336Z,15.90
2022-10-19T21:01:22.553Z,15.70
2022-10-19T21:03:52.798Z,16.30
2022-10-19T21:06:22.712Z,16.10
2022-10-19T21:08:52.959Z,16.30
2022-10-19T21:11:22.744Z,16.30
2022-10-19T21:13:53.936Z,16.20
2022-10-19T21:16:23.804Z,16.10
2022-10-19T21:18:51.786Z,16.30
2022-10-19T21:21:22.052Z,16.10
2022-10-19T21:23:54.291Z,16.10
2022-10-19T21:26:22.264Z,16.20
2022-10-19T21:28:52.963Z,16.10
2022-10-19T21:31:22.142Z,16.00
2022-10-19T21:33:50.761Z,16.20
2022-10-19T21:36:19.471Z,15.80
2022-10-19T21:38:47.593Z,16.10
2022-10-19T21:41:20.937Z,16.10
2022-10-19T21:43:51.568Z,16.10
2022-10-19T21:46:21.711Z,15.70
2022-10-19T21:48:50.504Z,15.40
2022-10-19T21:51:24.611Z,15.70
2022-10-19T21:53:52.364Z,15.40
2022-10-19T21:56:21.397Z,15.70
2022-10-19T21:58:50.632Z,15.80
2022-10-19T22:01:19.906Z,15.80
2022-10-19T22:03:47.694Z,15.70
2022-10-19T22:06:15.770Z,16.00
2022-10-19T22:08:47.077Z,15.70
2022-10-19T22:11:15.473Z,15.70
2022-10-19T22:13:44.528Z,16.00
2022-10-19T22:16:14.785Z,15.90
2022-10-19T22:18:42.808Z,15.90
2022-10-19T22:21:14.091Z,15.70
2022-10-19T22:23:42.939Z,15.50
2022-10-19T22:26:15.109Z,15.70
2022-10-19T22:28:44.645Z,15.30
2022-10-19T22:31:13.530Z,15.80
2022-10-19T22:33:41.511Z,16.00
2022-10-19T22:36:11.180Z,16.00
2022-10-19T22:38:39.266Z,16.10
2022-10-19T22:41:06.996Z,15.80
2022-10-19T22:43:34.758Z,15.80
2022-10-19T22:46:03.937Z,15.70
2022-10-19T22:48:31.756Z,15.60
2022-10-19T22:50:59.475Z,15.70
2022-10-19T22:53:27.244Z,15.70
2022-10-19T22:55:54.942Z,16.00
2022-10-19T22:58:22.644Z,15.70
2022-10-19T23:01:00.912Z,15.60
2022-10-19T23:03:30.032Z,15.80
2022-10-19T23:05:57.731Z,15.70
2022-10-19T23:08:25.521Z,15.70
2022-10-19T23:10:53.588Z,15.40
2022-10-19T23:13:21.308Z,15.70
2022-10-19T23:15:50.424Z,15.60
2022-10-19T23:18:18.781Z,15.60
2022-10-19T23:20:55.208Z,15.60
2022-10-19T23:23:23.556Z,15.00
2022-10-19T23:26:05.441Z,15.30
2022-10-19T23:28:34.199Z,15.60
2022-10-19T23:31:05.646Z,15.50
2022-10-19T23:33:33.775Z,15.60
2022-10-19T23:36:07.480Z,15.40
2022-10-19T23:38:35.772Z,15.20
2022-10-19T23:41:03.829Z,15.20
2022-10-19T23:43:31.697Z,15.20
2022-10-19T23:45:59.609Z,15.40
2022-10-19T23:48:27.802Z,14.70
2022-10-19T23:50:59.845Z,15.20
2022-10-19T23:53:30.135Z,14.90
2022-10-19T23:56:01.430Z,14.70
2022-10-19T23:58:29.653Z,15.10
